createdAt,value
2023-01-26T00:00:08.178Z,88.24
2023-01-26T00:02:53.401Z,88.68
2023-01-26T00:05:39.038Z,88.16
2023-01-26T00:08:24.494Z,88.14
2023-01-26T00:11:12.331Z,88.69
2023-01-26T00:13:59.744Z,87.99
2023-01-26T00:16:45.499Z,88.23
2023-01-26T00:19:30.627Z,87.50
2023-01-26T00:22:16.178Z,86.18
2023-01-26T00:25:01.557Z,85.66
2023-01-26T00:27:47.792Z,86.90
2023-01-26T00:30:32.952Z,86.36
2023-01-26T00:33:18.198Z,85.97
2023-01-26T00:36:03.954Z,86.59
2023-01-26T00:38:50.048Z,86.22
2023-01-26T00:41:53.898Z,85.27
2023-01-26T00:44:40.601Z,85.61
2023-01-26T00:47:25.938Z,85.47
2023-01-26T00:50:11.855Z,85.83
2023-01-26T00:52:57.605Z,85.32
2023-01-26T00:55:43.311Z,85.84
2023-01-26T00:58:28.641Z,85.68
2023-01-26T01:01:15.063Z,86.21
2023-01-26T01:04:00.882Z,86.07
2023-01-26T01:06:46.439Z,85.17
2023-01-26T01:09:31.701Z,86.21
2023-01-26T01:12:17.125Z,86.12
2023-01-26T01:15:02.657Z,85.94
2023-01-26T01:17:50.215Z,86.18
2023-01-26T01:20:35.717Z,85.83
2023-01-26T01:23:21.384Z,85.60
2023-01-26T01:26:07.036Z,85.44
2023-01-26T01:28:56.007Z,85.41
2023-01-26T01:31:43.152Z,85.17
2023-01-26T01:34:28.198Z,84.87
2023-01-26T01:37:15.162Z,84.71
2023-01-26T01:40:00.733Z,84.52
2023-01-26T01:42:48.303Z,84.46
2023-01-26T01:45:42.020Z,84.25
2023-01-26T01:48:36.473Z,84.51
2023-01-26T01:51:34.574Z,84.09
2023-01-26T01:54:30.287Z,84.31
2023-01-26T01:57:28.446Z,84.20
2023-01-26T02:00:19.549Z,84.04
2023-01-26T02:03:14.395Z,84.60
2023-01-26T02:06:28.896Z,83.75
2023-01-26T02:09:34.297Z,83.28
2023-01-26T02:12:23.293Z,83.12
2023-01-26T02:15:08.959Z,82.75
2023-01-26T02:17:54.811Z,82.89
2023-01-26T02:20:44.072Z,83.21
2023-01-26T02:23:52.402Z,83.51
2023-01-26T02:26:38.543Z,83.64
2023-01-26T02:29:24.214Z,83.97
2023-01-26T02:32:09.922Z,84.27
2023-01-26T02:34:57.760Z,84.72
2023-01-26T02:37:42.992Z,84.99
2023-01-26T02:40:48.681Z,85.66
2023-01-26T02:43:35.071Z,85.66
2023-01-26T02:46:22.368Z,85.67
2023-01-26T02:49:26.284Z,85.83
2023-01-26T02:52:11.387Z,85.94
2023-01-26T02:55:15.441Z,86.61
2023-01-26T02:58:02.978Z,86.17
2023-01-26T03:00:50.812Z,86.53
2023-01-26T03:03:42.289Z,86.21
2023-01-26T03:06:27.509Z,86.01
2023-01-26T03:09:15.421Z,85.87
2023-01-26T03:12:00.791Z,85.39
2023-01-26T03:14:46.645Z,85.25
2023-01-26T03:17:32.001Z,85.57
2023-01-26T03:20:52.885Z,85.86
2023-01-26T03:23:57.103Z,84.30
2023-01-26T03:27:05.332Z,83.77
2023-01-26T03:29:51.467Z,84.22
2023-01-26T03:32:36.965Z,84.72
2023-01-26T03:35:24.596Z,84.40
2023-01-26T03:38:10.355Z,83.93
2023-01-26T03:41:24.025Z,83.32
2023-01-26T03:44:27.917Z,84.11
2023-01-26T03:47:33.102Z,84.37
2023-01-26T03:50:36.921Z,84.39
2023-01-26T03:53:42.621Z,83.96
2023-01-26T03:56:33.452Z,83.41
2023-01-26T03:59:37.774Z,83.66
2023-01-26T04:02:44.464Z,83.14
2023-01-26T04:05:48.670Z,83.00
2023-01-26T04:08:33.695Z,82.61
2023-01-26T04:11:21.048Z,82.69
2023-01-26T04:14:25.171Z,83.24
2023-01-26T04:17:29.371Z,82.77
2023-01-26T04:20:34.373Z,82.98
2023-01-26T04:23:20.104Z,82.36
2023-01-26T04:26:07.304Z,82.38
2023-01-26T04:28:53.148Z,81.32
2023-01-26T04:31:39.591Z,80.87
2023-01-26T04:34:24.694Z,81.03
2023-01-26T04:37:10.570Z,81.47
2023-01-26T04:40:04.252Z,80.77
2023-01-26T04:42:50.974Z,80.32
2023-01-26T04:45:36.329Z,81.12
2023-01-26T04:48:21.551Z,80.68
2023-01-26T04:51:14.181Z,80.62
2023-01-26T04:53:59.447Z,80.50
2023-01-26T04:56:45.630Z,80.76
2023-01-26T04:59:30.936Z,81.33
2023-01-26T05:02:19.178Z,81.59
2023-01-26T05:05:04.845Z,81.18
2023-01-26T05:07:50.448Z,81.99
2023-01-26T05:10:35.995Z,81.63
2023-01-26T05:13:43.259Z,81.48
2023-01-26T05:16:34.566Z,82.25
2023-01-26T05:19:37.480Z,81.98
2023-01-26T05:22:49.224Z,82.81
2023-01-26T05:25:58.326Z,82.58
2023-01-26T05:28:43.704Z,82.71
2023-01-26T05:31:29.264Z,83.01
2023-01-26T05:34:14.633Z,83.61
2023-01-26T05:37:00.108Z,83.65
2023-01-26T05:39:45.816Z,83.86
2023-01-26T05:42:31.855Z,83.43
2023-01-26T05:45:33.027Z,83.38
2023-01-26T05:48:19.881Z,83.69
2023-01-26T05:51:09.021Z,83.29
2023-01-26T05:53:55.642Z,83.42
2023-01-26T05:56:41.011Z,83.73
2023-01-26T05:59:26.421Z,83.33
2023-01-26T06:02:12.750Z,82.99
2023-01-26T06:05:00.101Z,83.07
2023-01-26T06:07:45.394Z,82.44
2023-01-26T06:10:36.239Z,81.85
2023-01-26T06:13:33.317Z,81.79
2023-01-26T06:16:33.930Z,81.57
2023-01-26T06:19:19.135Z,82.24
2023-01-26T06:22:11.898Z,82.74
2023-01-26T06:25:00.383Z,82.82
2023-01-26T06:27:45.495Z,83.13
2023-01-26T06:30:43.911Z,83.11
2023-01-26T06:33:36.295Z,83.18
2023-01-26T06:36:22.698Z,82.31
2023-01-26T06:39:11.326Z,82.50
2023-01-26T06:41:56.813Z,82.80
2023-01-26T06:44:42.289Z,82.13
2023-01-26T06:47:27.580Z,82.47
2023-01-26T06:50:15.568Z,81.88
2023-01-26T06:53:04.182Z,82.57
2023-01-26T06:55:58.855Z,82.56
2023-01-26T06:58:52.824Z,82.71
2023-01-26T07:01:57.718Z,82.84
2023-01-26T07:04:43.304Z,82.94
2023-01-26T07:07:29.129Z,83.52
2023-01-26T07:10:14.545Z,84.34
2023-01-26T07:12:59.640Z,83.67
2023-01-26T07:15:44.844Z,84.23
2023-01-26T07:18:30.410Z,84.20
2023-01-26T07:21:18.715Z,84.05
2023-01-26T07:24:04.326Z,83.20
2023-01-26T07:26:49.688Z,83.24
2023-01-26T07:29:35.070Z,82.69
2023-01-26T07:32:20.574Z,83.16
2023-01-26T07:35:07.088Z,83.16
2023-01-26T07:37:52.138Z,84.22
2023-01-26T07:40:37.620Z,83.77
2023-01-26T07:43:23.513Z,83.61
2023-01-26T07:46:12.294Z,82.69
2023-01-26T07:48:57.321Z,82.45
2023-01-26T07:51:42.618Z,82.94
2023-01-26T07:54:27.885Z,81.47
2023-01-26T07:57:13.193Z,81.16
2023-01-26T07:59:58.670Z,81.33
2023-01-26T08:02:44.131Z,80.57
2023-01-26T08:05:29.505Z,81.19
2023-01-26T08:08:15.188Z,81.43
2023-01-26T08:11:01.518Z,81.48
2023-01-26T08:13:46.716Z,81.04
2023-01-26T08:16:32.066Z,80.94
2023-01-26T08:19:17.399Z,81.39
2023-01-26T08:22:02.627Z,81.88
2023-01-26T08:24:48.319Z,81.25
2023-01-26T08:27:36.640Z,80.63
2023-01-26T08:30:22.006Z,80.92
2023-01-26T08:33:07.059Z,80.81
2023-01-26T08:35:52.607Z,80.70
2023-01-26T08:38:37.974Z,80.86
2023-01-26T08:41:23.184Z,80.89
2023-01-26T08:44:10.376Z,80.77
2023-01-26T08:46:55.499Z,81.17
2023-01-26T08:49:40.833Z,81.09
2023-01-26T08:52:26.199Z,81.05
2023-01-26T08:55:11.900Z,80.97
2023-01-26T08:57:57.589Z,80.12
2023-01-26T09:00:43.104Z,81.21
2023-01-26T09:03:28.334Z,79.99
2023-01-26T09:06:15.773Z,80.56
2023-01-26T09:09:01.373Z,80.18
2023-01-26T09:11:47.117Z,79.96
2023-01-26T09:14:32.326Z,78.88
2023-01-26T09:17:17.585Z,79.47
2023-01-26T09:20:04.822Z,80.37
2023-01-26T09:22:50.088Z,80.91
2023-01-26T09:25:39.731Z,81.10
2023-01-26T09:28:24.997Z,81.46
2023-01-26T09:31:11.504Z,81.54
2023-01-26T09:33:57.202Z,81.83
2023-01-26T09:36:42.165Z,81.49
2023-01-26T09:39:27.485Z,81.35
2023-01-26T09:42:30.550Z,81.54
2023-01-26T09:45:24.717Z,81.63
2023-01-26T09:48:28.598Z,81.31
2023-01-26T09:51:37.623Z,80.42
2023-01-26T09:54:26.744Z,80.17
2023-01-26T09:57:14.688Z,79.58
2023-01-26T10:00:09.571Z,79.74
2023-01-26T10:03:13.193Z,79.87
2023-01-26T10:06:04.692Z,79.03
2023-01-26T10:09:34.877Z,79.13
2023-01-26T10:12:30.416Z,80.55
2023-01-26T10:15:41.506Z,80.28
2023-01-26T10:18:32.333Z,80.77
2023-01-26T10:21:22.510Z,80.95
2023-01-26T10:24:11.020Z,81.81
2023-01-26T10:26:58.527Z,82.17
2023-01-26T10:29:44.060Z,82.17
2023-01-26T10:32:29.546Z,82.02
2023-01-26T10:35:20.427Z,81.67
2023-01-26T10:38:34.023Z,82.18
2023-01-26T10:41:25.675Z,82.90
2023-01-26T10:44:11.626Z,82.96
2023-01-26T10:47:15.423Z,83.10
2023-01-26T10:50:21.368Z,83.22
2023-01-26T10:53:13.744Z,82.21
2023-01-26T10:56:13.363Z,82.36
2023-01-26T10:59:03.030Z,81.93
2023-01-26T11:01:53.704Z,82.18
2023-01-26T11:04:39.812Z,81.87
2023-01-26T11:07:34.123Z,81.36
2023-01-26T11:10:29.725Z,80.48
2023-01-26T11:13:20.431Z,81.07
2023-01-26T11:16:22.664Z,80.92
2023-01-26T11:19:25.132Z,80.37
2023-01-26T11:22:20.342Z,80.61
2023-01-26T11:25:27.575Z,81.69
2023-01-26T11:28:30.985Z,81.03
2023-01-26T11:31:31.319Z,80.48
2023-01-26T11:34:40.407Z,80.68
2023-01-26T11:37:46.553Z,80.59
2023-01-26T11:40:50.978Z,80.43
2023-01-26T11:44:18.707Z,80.49
2023-01-26T11:47:14.815Z,80.88
2023-01-26T11:50:21.860Z,81.34
2023-01-26T11:53:24.734Z,81.42
2023-01-26T11:56:14.815Z,81.07
2023-01-26T11:59:12.294Z,80.92
2023-01-26T12:02:20.150Z,81.32
2023-01-26T12:05:17.550Z,81.83
2023-01-26T12:08:25.371Z,82.79
2023-01-26T12:11:28.276Z,82.79
2023-01-26T12:14:29.755Z,83.39
2023-01-26T12:17:34.874Z,82.71
2023-01-26T12:20:43.278Z,82.61
2023-01-26T12:23:47.660Z,82.33
2023-01-26T12:26:40.908Z,81.80
2023-01-26T12:29:38.488Z,81.37
2023-01-26T12:32:24.687Z,81.92
2023-01-26T12:35:13.859Z,81.17
2023-01-26T12:38:17.560Z,82.32
2023-01-26T12:41:08.863Z,83.02
2023-01-26T12:44:25.860Z,82.99
2023-01-26T12:47:20.327Z,81.29
2023-01-26T12:50:29.881Z,81.21
2023-01-26T12:53:30.115Z,80.69
2023-01-26T12:56:31.898Z,80.14
2023-01-26T12:59:39.220Z,79.43
2023-01-26T13:02:31.754Z,77.22
2023-01-26T13:05:32.697Z,77.52
2023-01-26T13:08:30.338Z,77.41
2023-01-26T13:11:45.995Z,76.08
2023-01-26T13:14:32.935Z,76.66
2023-01-26T13:17:18.992Z,76.55
2023-01-26T13:20:27.120Z,76.85
2023-01-26T13:23:41.810Z,76.58
2023-01-26T13:26:33.277Z,75.51
2023-01-26T13:29:33.222Z,75.95
2023-01-26T13:32:18.505Z,75.88
2023-01-26T13:35:05.733Z,75.53
2023-01-26T13:38:00.597Z,76.04
2023-01-26T13:40:49.818Z,76.13
2023-01-26T13:43:50.429Z,77.05
2023-01-26T13:46:47.106Z,76.75
2023-01-26T13:49:40.666Z,78.30
2023-01-26T13:52:27.794Z,78.99
2023-01-26T13:55:22.332Z,79.95
2023-01-26T13:58:12.681Z,79.94
2023-01-26T14:01:13.577Z,79.73
2023-01-26T14:04:06.354Z,80.09
2023-01-26T14:07:02.877Z,79.99
2023-01-26T14:09:51.230Z,79.99
2023-01-26T14:12:48.801Z,80.69
2023-01-26T14:15:34.955Z,81.48
2023-01-26T14:18:22.423Z,81.66
2023-01-26T14:21:18.671Z,81.84
2023-01-26T14:24:09.107Z,82.40
2023-01-26T14:26:54.750Z,82.51
2023-01-26T14:29:39.823Z,82.42
2023-01-26T14:32:29.322Z,83.04
2023-01-26T14:35:23.221Z,83.33
2023-01-26T14:38:11.655Z,83.59
2023-01-26T14:40:59.859Z,83.76
2023-01-26T14:43:45.122Z,83.64
2023-01-26T14:46:59.678Z,83.50
2023-01-26T14:49:44.985Z,83.66
2023-01-26T14:52:34.185Z,82.89
2023-01-26T14:55:19.326Z,83.47
2023-01-26T14:58:15.561Z,83.14
2023-01-26T15:01:01.808Z,83.48
2023-01-26T15:03:51.329Z,83.47
2023-01-26T15:06:36.743Z,83.33
2023-01-26T15:09:28.668Z,83.65
2023-01-26T15:12:17.066Z,83.96
2023-01-26T15:15:03.007Z,84.34
2023-01-26T15:18:00.976Z,84.31
2023-01-26T15:21:00.151Z,84.83
2023-01-26T15:23:50.507Z,85.09
2023-01-26T15:26:36.521Z,85.17
2023-01-26T15:29:31.995Z,84.66
2023-01-26T15:32:32.529Z,84.54
2023-01-26T15:35:22.290Z,84.98
2023-01-26T15:38:13.677Z,86.04
2023-01-26T15:40:59.355Z,86.25
2023-01-26T15:43:44.379Z,86.40
2023-01-26T15:46:30.056Z,87.12
2023-01-26T15:49:19.803Z,87.15
2023-01-26T15:52:34.318Z,87.54
2023-01-26T15:55:24.418Z,87.72
2023-01-26T15:58:10.042Z,88.45
2023-01-26T16:00:55.325Z,88.97
2023-01-26T16:03:40.595Z,89.07
2023-01-26T16:06:28.131Z,89.10
2023-01-26T16:09:13.296Z,88.98
2023-01-26T16:11:58.688Z,89.22
2023-01-26T16:14:44.436Z,89.05
2023-01-26T16:17:29.695Z,88.96
2023-01-26T16:20:15.139Z,89.30
2023-01-26T16:23:00.720Z,89.42
2023-01-26T16:25:46.556Z,89.69
2023-01-26T16:28:31.782Z,89.49
2023-01-26T16:31:22.836Z,89.65
2023-01-26T16:34:09.528Z,88.94
2023-01-26T16:36:56.327Z,94.23
2023-01-26T16:39:41.850Z,95.15
2023-01-26T16:42:27.030Z,92.53
2023-01-26T16:45:34.549Z,96.79
2023-01-26T16:48:21.379Z,94.84
2023-01-26T16:51:21.774Z,95.32
2023-01-26T16:54:06.969Z,95.89
2023-01-26T16:56:52.645Z,92.53
2023-01-26T16:59:38.041Z,93.17
2023-01-26T17:02:26.278Z,96.49
2023-01-26T17:05:20.433Z,90.77
2023-01-26T17:08:06.044Z,88.79
2023-01-26T17:11:01.563Z,88.20
2023-01-26T17:13:48.029Z,87.24
2023-01-26T17:16:33.319Z,87.38
2023-01-26T17:19:18.633Z,87.38
2023-01-26T17:22:03.696Z,86.37
2023-01-26T17:24:49.738Z,86.36
2023-01-26T17:27:35.308Z,86.81
2023-01-26T17:30:20.744Z,86.76
2023-01-26T17:33:05.900Z,86.32
2023-01-26T17:36:00.278Z,85.80
2023-01-26T17:38:47.158Z,85.44
2023-01-26T17:41:32.436Z,86.08
2023-01-26T17:44:17.904Z,85.86
2023-01-26T17:47:03.104Z,85.77
2023-01-26T17:49:48.691Z,86.08
2023-01-26T17:52:36.297Z,86.17
2023-01-26T17:55:21.439Z,86.51
2023-01-26T17:58:10.796Z,86.88
2023-01-26T18:00:56.272Z,85.55
2023-01-26T18:03:42.525Z,85.45
2023-01-26T18:06:29.268Z,85.30
2023-01-26T18:09:15.105Z,85.89
2023-01-26T18:12:00.375Z,86.11
2023-01-26T18:14:45.961Z,86.49
2023-01-26T18:17:31.039Z,86.77
2023-01-26T18:20:17.545Z,87.24
2023-01-26T18:23:02.827Z,87.01
2023-01-26T18:25:48.749Z,86.03
2023-01-26T18:28:33.832Z,86.27
2023-01-26T18:31:27.010Z,86.04
2023-01-26T18:34:12.160Z,86.43
2023-01-26T18:36:57.246Z,86.43
2023-01-26T18:39:42.804Z,86.50
2023-01-26T18:42:27.998Z,86.83
2023-01-26T18:45:13.698Z,87.06
2023-01-26T18:47:59.027Z,86.45
2023-01-26T18:50:48.497Z,86.72
2023-01-26T18:53:33.769Z,86.59
2023-01-26T18:56:19.279Z,85.95
2023-01-26T18:59:04.314Z,86.24
2023-01-26T19:01:50.521Z,86.97
2023-01-26T19:04:35.578Z,87.15
2023-01-26T19:07:21.018Z,87.18
2023-01-26T19:10:06.637Z,87.62
2023-01-26T19:12:52.220Z,86.96
2023-01-26T19:15:38.037Z,87.00
2023-01-26T19:18:23.854Z,87.72
2023-01-26T19:21:09.962Z,87.70
2023-01-26T19:23:58.397Z,87.67
2023-01-26T19:26:43.748Z,88.07
2023-01-26T19:29:28.988Z,88.28
2023-01-26T19:32:14.037Z,88.81
2023-01-26T19:34:59.399Z,89.18
2023-01-26T19:37:44.745Z,89.03
2023-01-26T19:40:31.781Z,88.68
2023-01-26T19:43:21.192Z,88.99
2023-01-26T19:46:08.464Z,90.12
2023-01-26T19:48:53.930Z,90.76
2023-01-26T19:51:39.185Z,92.31
2023-01-26T19:54:24.755Z,92.71
2023-01-26T19:57:10.888Z,93.85
2023-01-26T19:59:56.228Z,94.43
2023-01-26T20:02:41.470Z,94.69
2023-01-26T20:05:30.104Z,94.49
2023-01-26T20:08:15.565Z,95.61
2023-01-26T20:11:09.156Z,96.81
2023-01-26T20:13:56.264Z,95.23
2023-01-26T20:16:41.807Z,95.86
2023-01-26T20:19:28.144Z,95.48
2023-01-26T20:22:13.761Z,96.18
2023-01-26T20:25:00.184Z,96.22
2023-01-26T20:27:45.459Z,95.73
2023-01-26T20:30:30.520Z,95.29
2023-01-26T20:33:15.727Z,96.30
2023-01-26T20:36:05.631Z,96.42
2023-01-26T20:38:51.445Z,96.66
2023-01-26T20:41:37.296Z,96.39
2023-01-26T20:44:22.406Z,96.06
2023-01-26T20:47:08.158Z,94.36
2023-01-26T20:49:55.951Z,95.01
2023-01-26T20:52:43.630Z,95.42
2023-01-26T20:55:29.108Z,95.60
2023-01-26T20:58:14.371Z,95.45
2023-01-26T21:01:11.617Z,95.23
2023-01-26T21:03:56.654Z,95.00
2023-01-26T21:06:42.164Z,95.11
2023-01-26T21:09:27.490Z,95.01
2023-01-26T21:12:13.892Z,94.44
2023-01-26T21:15:00.676Z,94.42
2023-01-26T21:17:46.034Z,94.21
2023-01-26T21:20:31.446Z,95.12
2023-01-26T21:23:17.029Z,94.56
2023-01-26T21:26:05.858Z,95.04
2023-01-26T21:28:55.543Z,95.40
2023-01-26T21:31:41.148Z,94.72
2023-01-26T21:34:26.392Z,95.59
2023-01-26T21:37:11.698Z,94.58
2023-01-26T21:39:56.981Z,94.86
2023-01-26T21:42:42.353Z,94.21
2023-01-26T21:45:46.204Z,94.70
2023-01-26T21:48:39.199Z,95.07
2023-01-26T21:51:44.844Z,95.43
2023-01-26T21:54:30.454Z,95.08
2023-01-26T21:57:36.463Z,94.72
2023-01-26T22:00:22.623Z,94.74
2023-01-26T22:03:10.153Z,94.83
2023-01-26T22:05:56.739Z,94.24
2023-01-26T22:08:42.124Z,94.19
2023-01-26T22:11:28.294Z,94.23
2023-01-26T22:14:16.116Z,93.77
2023-01-26T22:17:01.368Z,94.16
2023-01-26T22:19:47.066Z,94.33
2023-01-26T22:22:32.173Z,95.21
2023-01-26T22:25:17.594Z,95.24
2023-01-26T22:28:03.422Z,95.24
2023-01-26T22:30:48.819Z,95.06
2023-01-26T22:33:35.413Z,95.32
2023-01-26T22:36:22.205Z,95.71
2023-01-26T22:39:07.949Z,95.47
2023-01-26T22:41:53.356Z,95.25
2023-01-26T22:44:38.504Z,94.95
2023-01-26T22:47:23.949Z,94.83
2023-01-26T22:50:10.637Z,94.49
2023-01-26T22:52:57.199Z,95.65
2023-01-26T22:55:43.699Z,94.51
2023-01-26T22:58:30.300Z,94.72
2023-01-26T23:01:17.976Z,94.50
2023-01-26T23:04:03.608Z,94.43
2023-01-26T23:06:48.716Z,94.03
2023-01-26T23:09:34.480Z,93.67
2023-01-26T23:12:20.321Z,93.81
2023-01-26T23:15:06.074Z,93.29
2023-01-26T23:17:52.911Z,92.40
2023-01-26T23:20:38.338Z,91.76
2023-01-26T23:23:24.593Z,91.91
2023-01-26T23:26:10.620Z,91.56
2023-01-26T23:28:55.743Z,91.35
2023-01-26T23:31:41.177Z,91.45
2023-01-26T23:34:26.186Z,91.78
2023-01-26T23:37:11.403Z,91.88
2023-01-26T23:39:56.912Z,91.86
2023-01-26T23:43:00.361Z,92.02
2023-01-26T23:45:49.059Z,91.94
2023-01-26T23:48:34.363Z,91.06
2023-01-26T23:51:19.449Z,91.28
2023-01-26T23:54:04.859Z,91.26
2023-01-26T23:56:50.354Z,91.20
2023-01-26T23:59:35.479Z,90.66
